CMB855 Details

Departure: Guam International Airport (PGUM)
Arrival: Daniel K Inouye International Airport (PHNL)
Route: DEWSS A450 NATIE A450 BRIUN NONNI BOOKE BOOKE8
Notes: USTRANSCOM CONTRACT FLIGHT | PAYLOAD RESTRICTED | ETOPS


Current Weather Information
PGUM 181454Z 06008KT 10SM FEW090 26/22 A2992 RMK AO2 SLP123 60000 T02560222 58001
PHNL 181453Z 33005KT 10SM CLR 18/13 A3002 RMK AO2 SLP165 T01830128 56008